Time;durP1;ratioP1;P1;durP2;ratioP2;P2;SDS_P1;SDS_P2;PMS_P1;PMS_P2;Temp;Humidity;BMP_temperature;BMP_pressure;BME280_temperature;BME280_humidity;BME280_pressure;Samples;Min_cycle;Max_cycle;Signal;HPM_P1;HPM_P2
2022/03/23 00:01:04;;;;;;;48.03;18.60;;;;;;;19.03;33.60;102867.34;5084989;28;20538;-55
2022/03/23 00:03:30;;;;;;;41.47;18.13;;;;;;;18.93;33.65;102873.13;5087189;28;20042;-56
2022/03/23 00:05:56;;;;;;;43.08;18.30;;;;;;;19.02;33.58;102871.94;5077418;28;20033;-53
2022/03/23 00:08:22;;;;;;;37.17;17.33;;;;;;;18.97;33.60;102871.69;5078612;28;20100;-53
2022/03/23 00:10:48;;;;;;;46.83;17.50;;;;;;;18.97;33.85;102874.41;5081230;28;20036;-54
2022/03/23 00:13:13;;;;;;;46.03;17.35;;;;;;;18.93;33.72;102870.44;5083702;28;20040;-56
2022/03/23 00:15:40;;;;;;;42.85;18.55;;;;;;;18.80;34.15;102879.34;5073030;28;20071;-56
2022/03/23 00:18:06;;;;;;;42.50;18.90;;;;;;;18.78;34.29;102881.38;5089133;28;20035;-57
2022/03/23 00:20:31;;;;;;;40.47;18.13;;;;;;;18.80;34.29;102879.34;5088982;28;20108;-51
2022/03/23 00:22:57;;;;;;;45.67;19.20;;;;;;;18.66;34.36;102874.88;5082595;28;20036;-54
2022/03/23 00:25:23;;;;;;;43.72;17.58;;;;;;;18.71;34.42;102875.94;5081506;28;20033;-52
2022/03/23 00:27:49;;;;;;;40.73;17.87;;;;;;;18.58;34.79;102881.28;5088454;28;20104;-51
2022/03/23 00:30:15;;;;;;;40.05;17.45;;;;;;;18.53;34.83;102883.75;5076322;28;20036;-51
2022/03/23 00:32:40;;;;;;;38.17;17.93;;;;;;;18.37;34.89;102880.31;5087321;28;20051;-54
2022/03/23 00:35:06;;;;;;;43.60;19.47;;;;;;;18.40;35.06;102874.50;5083685;28;20036;-54
2022/03/23 00:37:31;;;;;;;41.88;18.23;;;;;;;18.32;35.15;102871.97;5079973;28;20043;-54
2022/03/23 00:39:57;;;;;;;48.47;20.10;;;;;;;18.38;34.94;102883.88;5090728;28;20036;-58
2022/03/23 00:42:22;;;;;;;51.23;19.43;;;;;;;18.41;35.06;102870.75;5073095;28;20088;-53
2022/03/23 00:44:51;;;;;;;49.60;19.25;;;;;;;18.39;35.13;102877.44;5083874;28;20266;-54
2022/03/23 00:47:17;;;;;;;45.17;19.73;;;;;;;18.41;34.97;102880.78;5086930;28;20063;-54
2022/03/23 00:49:44;;;;;;;46.08;20.08;;;;;;;18.34;35.04;102875.31;5091258;28;20036;-54
2022/03/23 00:52:11;;;;;;;42.47;19.10;;;;;;;18.36;34.81;102870.53;5080763;28;20033;-53
2022/03/23 00:54:37;;;;;;;47.35;19.73;;;;;;;18.26;35.07;102872.75;5091712;28;20101;-54
2022/03/23 00:57:04;;;;;;;45.53;19.40;;;;;;;18.32;34.98;102878.19;5085368;28;20120;-54
2022/03/23 00:59:30;;;;;;;51.65;21.10;;;;;;;18.24;34.95;102870.22;5084681;28;20033;-54
2022/03/23 01:01:56;;;;;;;52.63;21.50;;;;;;;18.24;34.99;102870.22;5077381;28;20102;-54
2022/03/23 01:04:23;;;;;;;39.73;18.43;;;;;;;18.29;34.80;102869.66;5093956;28;20029;-53
2022/03/23 01:06:49;;;;;;;42.10;18.55;;;;;;;18.14;34.89;102867.06;5084337;28;20270;-55
2022/03/23 01:09:14;;;;;;;49.95;19.17;;;;;;;18.15;35.04;102872.25;5090135;28;20032;-52
2022/03/23 01:11:40;;;;;;;39.10;17.53;;;;;;;18.02;35.32;102862.16;5081926;28;20039;-53
2022/03/23 01:14:07;;;;;;;45.28;18.55;;;;;;;17.96;35.60;102871.03;5093333;28;20266;-56
2022/03/23 01:16:34;;;;;;;44.70;18.52;;;;;;;17.98;35.57;102874.38;5080834;28;20063;-54
2022/03/23 01:19:00;;;;;;;39.20;18.67;;;;;;;17.92;35.75;102872.47;5088370;28;20037;-54
2022/03/23 01:21:26;;;;;;;39.40;18.10;;;;;;;17.92;35.71;102867.06;5088978;28;20067;-54
2022/03/23 01:23:52;;;;;;;50.97;19.15;;;;;;;17.88;35.79;102866.59;5080600;28;20037;-50
2022/03/23 01:26:17;;;;;;;44.50;18.17;;;;;;;17.86;35.88;102857.84;5093501;28;20104;-51
2022/03/23 01:28:44;;;;;;;40.05;18.75;;;;;;;17.82;36.06;102861.97;5082288;28;20040;-57
2022/03/23 01:31:10;;;;;;;45.00;18.90;;;;;;;17.74;36.16;102856.66;5087042;28;20044;-55
2022/03/23 01:33:35;;;;;;;50.50;18.33;;;;;;;17.72;36.09;102859.59;5089991;28;20029;-55
2022/03/23 01:36:01;;;;;;;48.40;19.57;;;;;;;17.70;36.16;102858.09;5079440;28;20109;-54
2022/03/23 01:38:26;;;;;;;50.83;19.53;;;;;;;17.55;36.44;102856.31;5083068;28;20300;-56
2022/03/23 01:40:52;;;;;;;42.77;17.87;;;;;;;17.55;36.57;102867.13;5083227;28;20073;-57
2022/03/23 01:43:17;;;;;;;49.73;19.90;;;;;;;17.45;36.74;102856.63;5085962;28;20056;-54
2022/03/23 01:45:43;;;;;;;41.13;19.27;;;;;;;17.41;36.82;102852.63;5090621;28;20025;-54
2022/03/23 01:48:08;;;;;;;40.97;19.77;;;;;;;17.41;36.87;102843.69;5079762;28;20273;-53
2022/03/23 01:50:34;;;;;;;44.00;19.27;;;;;;;17.29;37.15;102846.88;5091928;28;20079;-54
2022/03/23 01:53:01;;;;;;;48.63;20.42;;;;;;;17.30;37.18;102850.44;5085012;28;20029;-53
2022/03/23 01:55:29;;;;;;;47.47;19.38;;;;;;;17.26;37.00;102849.97;5083299;28;20048;-53
2022/03/23 01:57:55;;;;;;;55.07;20.33;;;;;;;17.27;37.22;102854.34;5091928;28;20049;-54
2022/03/23 02:00:21;;;;;;;48.57;19.83;;;;;;;17.25;37.24;102837.47;5079693;28;20062;-51
2022/03/23 02:02:48;;;;;;;51.47;19.80;;;;;;;17.18;37.30;102833.88;5089861;28;20791;-54
2022/03/23 02:05:15;;;;;;;48.50;20.67;;;;;;;17.12;37.48;102837.34;5085675;28;20024;-54
2022/03/23 02:07:54;;;;;;;53.80;21.80;;;;;;;17.01;37.59;102839.50;5080777;28;20105;-54
2022/03/23 02:10:20;;;;;;;44.38;19.95;;;;;;;16.73;38.23;102839.34;5091774;28;20037;-52
2022/03/23 02:13:06;;;;;;;44.28;20.30;;;;;;;16.81;38.28;102838.38;5084631;28;20556;-56
2022/03/23 02:15:32;;;;;;;46.83;20.98;;;;;;;16.77;38.24;102836.06;5083564;28;20039;-52
2022/03/23 02:17:58;;;;;;;47.00;19.27;;;;;;;16.71;38.72;102838.66;5091416;28;20044;-54
2022/03/23 02:20:24;;;;;;;43.25;19.92;;;;;;;16.53;38.99;102837.22;5078517;28;20273;-56
2022/03/23 02:22:50;;;;;;;45.65;18.42;;;;;;;16.53;39.06;102833.66;5088558;28;20040;-54
2022/03/23 02:25:22;;;;;;;43.05;19.40;;;;;;;16.58;39.01;102836.63;5085970;28;20037;-54
2022/03/23 02:27:50;;;;;;;47.35;20.77;;;;;;;16.51;39.65;102843.81;5081118;28;20033;-53
2022/03/23 02:30:16;;;;;;;44.63;21.48;;;;;;;16.59;39.90;102841.00;5092011;28;20042;-51
2022/03/23 02:32:43;;;;;;;44.60;21.17;;;;;;;16.54;40.54;102838.88;5075603;28;20032;-51
2022/03/23 02:35:11;;;;;;;42.60;20.23;;;;;;;16.54;40.54;102841.59;5084886;28;20036;-52
2022/03/23 02:37:38;;;;;;;51.53;19.98;;;;;;;16.37;41.48;102838.22;5082416;28;20036;-50
2022/03/23 02:40:04;;;;;;;49.75;20.52;;;;;;;16.30;41.66;102832.72;5092115;28;20037;-54
2022/03/23 02:42:30;;;;;;;43.42;20.10;;;;;;;16.43;41.60;102836.63;5079296;28;20052;-52
2022/03/23 02:44:55;;;;;;;49.83;22.43;;;;;;;16.34;41.75;102833.19;5088148;28;20029;-56
2022/03/23 02:47:20;;;;;;;40.70;19.50;;;;;;;16.31;41.91;102833.56;5086170;28;20043;-53
2022/03/23 02:49:46;;;;;;;43.55;19.17;;;;;;;16.32;42.20;102827.97;5080942;28;20056;-54
2022/03/23 02:52:12;;;;;;;42.83;19.17;;;;;;;16.25;42.59;102832.44;5091732;28;20044;-56
2022/03/23 03:03:27;;;;;;;43.25;20.30;;;;;;;16.20;43.44;102834.84;5086696;28;20055;-50
2022/03/23 03:05:53;;;;;;;46.67;19.80;;;;;;;16.09;43.65;102846.09;5079427;28;20071;-52
2022/03/23 03:11:03;;;;;;;46.35;19.75;;;;;;;16.05;43.11;102840.22;5083342;28;20036;-56
2022/03/23 03:13:29;;;;;;;37.75;18.60;;;;;;;15.95;43.08;102847.75;5082580;28;20064;-53
2022/03/23 03:16:02;;;;;;;50.22;19.92;;;;;;;15.97;43.09;102843.84;5090255;28;20032;-56
2022/03/23 03:18:33;;;;;;;51.90;19.05;;;;;;;15.97;42.82;102848.41;5077952;28;20064;-55
2022/03/23 03:21:08;;;;;;;42.47;17.73;;;;;;;15.89;42.75;102847.44;5087432;28;20028;-53
2022/03/23 03:23:37;;;;;;;49.33;18.23;;;;;;;15.88;42.62;102843.06;5087436;28;20040;-51
2022/03/23 03:26:05;;;;;;;44.78;18.50;;;;;;;15.76;42.53;102842.63;5078500;28;20063;-54
2022/03/23 03:28:33;;;;;;;39.90;18.30;;;;;;;15.76;42.33;102847.19;5078721;28;20048;-54
2022/03/23 03:31:05;;;;;;;45.38;18.92;;;;;;;15.85;41.91;102843.41;5087181;28;20047;-56
2022/03/23 03:33:31;;;;;;;42.30;18.30;;;;;;;15.76;42.39;102845.31;5086537;28;20055;-54
2022/03/23 03:35:57;;;;;;;47.95;19.10;;;;;;;15.75;42.24;102849.03;5078886;28;20033;-53
2022/03/23 03:38:22;;;;;;;44.90;18.60;;;;;;;15.79;42.25;102841.44;5091059;28;20066;-54
2022/03/23 03:40:48;;;;;;;39.27;18.83;;;;;;;15.68;42.11;102841.84;5080653;28;20331;-57
2022/03/23 03:43:16;;;;;;;41.63;20.47;;;;;;;15.80;41.68;102848.50;5085150;28;20044;-54
2022/03/23 03:45:43;;;;;;;44.17;17.52;;;;;;;15.78;41.54;102845.97;5087775;28;20032;-55
2022/03/23 03:48:09;;;;;;;37.55;16.77;;;;;;;15.86;41.31;102845.06;5077855;28;20037;-56
2022/03/23 03:50:35;;;;;;;42.95;18.50;;;;;;;15.64;41.24;102849.47;5090445;28;20079;-57
2022/03/23 03:53:01;;;;;;;51.27;19.13;;;;;;;15.65;41.02;102844.91;5081968;28;20036;-55
2022/03/23 03:55:27;;;;;;;41.45;18.02;;;;;;;15.68;40.82;102852.63;5083334;28;20108;-56
2022/03/23 03:57:52;;;;;;;45.47;17.47;;;;;;;15.65;40.64;102853.84;5088497;28;20063;-56
2022/03/23 04:00:18;;;;;;;35.65;17.25;;;;;;;15.68;40.62;102856.19;5077701;28;20060;-56
2022/03/23 04:02:44;;;;;;;45.28;18.90;;;;;;;15.50;40.65;102859.19;5089125;28;20059;-55
2022/03/23 04:05:09;;;;;;;39.57;18.10;;;;;;;15.59;40.34;102850.00;5083187;28;20028;-51
2022/03/23 04:07:35;;;;;;;46.23;19.60;;;;;;;15.63;40.40;102858.59;5081904;28;20341;-55
2022/03/23 04:10:01;;;;;;;44.13;19.10;;;;;;;15.60;40.34;102853.56;5090142;28;20052;-55
2022/03/23 04:12:27;;;;;;;46.10;20.05;;;;;;;15.51;40.38;102850.09;5077645;28;20051;-55
2022/03/23 04:14:52;;;;;;;48.93;20.07;;;;;;;15.50;40.37;102859.19;5088029;28;20033;-55
2022/03/23 04:17:18;;;;;;;45.67;19.53;;;;;;;15.39;40.50;102859.59;5083468;28;20032;-54
2022/03/23 04:19:43;;;;;;;41.77;19.77;;;;;;;15.36;40.62;102859.94;5083468;28;20037;-56
2022/03/23 04:22:09;;;;;;;43.30;18.97;;;;;;;15.42;40.38;102867.31;5094838;28;20292;-53
2022/03/23 04:24:34;;;;;;;50.87;20.70;;;;;;;15.38;40.33;102860.59;5082205;28;20035;-57
2022/03/23 04:27:00;;;;;;;44.90;21.60;;;;;;;15.40;40.37;102864.81;5090792;28;20266;-53
2022/03/23 04:29:26;;;;;;;49.67;20.40;;;;;;;15.41;40.17;102857.56;5088855;28;20029;-55
2022/03/23 04:31:52;;;;;;;46.80;19.77;;;;;;;15.37;40.32;102862.47;5083573;28;20041;-55
2022/03/23 04:34:18;;;;;;;45.78;20.35;;;;;;;15.23;40.61;102872.16;5094334;28;20071;-54
2022/03/23 04:36:43;;;;;;;50.25;19.98;;;;;;;15.20;40.59;102869.81;5082829;28;20040;-55
2022/03/23 04:39:09;;;;;;;51.63;20.53;;;;;;;15.10;40.71;102870.00;5089390;28;20036;-54
2022/03/23 04:41:35;;;;;;;52.95;20.73;;;;;;;15.11;40.78;102871.72;5089917;28;20277;-50
2022/03/23 04:44:00;;;;;;;50.13;19.80;;;;;;;14.98;40.83;102868.75;5082343;28;20060;-54
2022/03/23 04:46:26;;;;;;;41.83;18.77;;;;;;;14.95;41.13;102869.09;5094242;28;20048;-52
2022/03/23 04:48:52;;;;;;;50.78;20.70;;;;;;;15.03;40.96;102875.28;5083658;28;20101;-54
2022/03/23 04:51:17;;;;;;;52.70;20.63;;;;;;;15.05;41.08;102870.56;5087769;28;20033;-54
2022/03/23 04:53:43;;;;;;;42.23;19.67;;;;;;;14.61;42.05;102879.13;5090570;28;20029;-55
2022/03/23 04:56:08;;;;;;;56.25;23.08;;;;;;;14.96;41.58;102879.69;5080924;28;20045;-53
2022/03/23 04:58:34;;;;;;;46.80;21.27;;;;;;;15.00;41.43;102875.66;5094115;28;20033;-52
2022/03/23 05:01:00;;;;;;;41.80;19.58;;;;;;;14.99;41.62;102883.88;5084695;28;20066;-53
2022/03/23 05:03:26;;;;;;;46.33;20.52;;;;;;;15.15;41.42;102883.81;5086538;28;20041;-51
2022/03/23 05:05:52;;;;;;;45.33;19.87;;;;;;;14.99;41.86;102883.88;5091782;28;20036;-54
2022/03/23 05:08:18;;;;;;;41.27;21.47;;;;;;;15.03;41.92;102879.81;5080402;28;20037;-53
2022/03/23 05:10:44;;;;;;;43.47;19.58;;;;;;;14.94;42.32;102887.09;5090545;28;20028;-52
2022/03/23 05:13:09;;;;;;;43.80;21.27;;;;;;;14.87;42.94;102883.44;5093429;28;20060;-53
2022/03/23 05:15:35;;;;;;;50.50;20.65;;;;;;;14.96;42.57;102893.16;5088946;28;20088;-54
2022/03/23 05:18:01;;;;;;;46.97;20.40;;;;;;;14.82;42.74;102893.91;5081373;28;20044;-54
2022/03/23 05:20:26;;;;;;;51.97;20.00;;;;;;;14.87;42.62;102894.22;5093393;28;20041;-55
2022/03/23 05:22:53;;;;;;;54.97;21.67;;;;;;;14.83;42.64;102893.72;5083217;28;20024;-56
2022/03/23 05:25:19;;;;;;;48.88;20.73;;;;;;;14.87;42.91;102896.91;5087064;28;20104;-56
2022/03/23 05:27:45;;;;;;;46.35;21.25;;;;;;;14.81;42.80;102892.22;5090233;28;20043;-55
2022/03/23 05:30:12;;;;;;;49.67;19.30;;;;;;;14.80;42.73;102893.22;5079704;28;20040;-55
2022/03/23 05:32:39;;;;;;;46.53;19.15;;;;;;;14.75;43.01;102886.47;5092867;28;20270;-54
2022/03/23 05:35:05;;;;;;;40.75;19.55;;;;;;;14.71;42.92;102887.84;5084425;28;20063;-55
2022/03/23 05:37:31;;;;;;;44.05;19.92;;;;;;;14.64;43.08;102897.63;5085443;28;20041;-55
2022/03/23 05:39:56;;;;;;;47.10;21.27;;;;;;;14.58;43.28;102898.31;5091613;28;20032;-52
2022/03/23 05:42:21;;;;;;;45.50;20.27;;;;;;;14.67;43.02;102897.25;5080139;28;20056;-57
2022/03/23 05:44:47;;;;;;;49.07;20.43;;;;;;;14.44;43.47;102895.28;5090606;28;20285;-52
2022/03/23 05:47:12;;;;;;;46.03;22.97;;;;;;;14.41;43.63;102892.94;5085139;28;20025;-51
2022/03/23 05:49:38;;;;;;;47.57;19.80;;;;;;;14.41;43.57;102894.78;5083807;28;20041;-54
2022/03/23 05:52:04;;;;;;;39.60;19.53;;;;;;;14.66;42.87;102903.66;5092176;28;20055;-52
2022/03/23 05:54:30;;;;;;;50.05;19.60;;;;;;;14.65;42.80;102899.28;5078701;28;20091;-54
2022/03/23 05:56:55;;;;;;;53.07;20.27;;;;;;;14.43;43.04;102907.06;5089840;28;20045;-54
2022/03/23 05:59:21;;;;;;;54.03;17.92;;;;;;;14.06;43.41;102905.75;5085454;28;20139;-53
2022/03/23 06:01:47;;;;;;;40.08;18.48;;;;;;;14.12;43.45;102904.22;5082729;28;20059;-55
2022/03/23 06:04:12;;;;;;;45.80;19.23;;;;;;;14.16;43.32;102906.44;5092888;28;20037;-55
2022/03/23 06:06:39;;;;;;;37.43;18.43;;;;;;;14.10;43.32;102909.81;5080048;28;20084;-53
2022/03/23 06:09:05;;;;;;;48.13;18.83;;;;;;;14.04;43.53;102907.75;5079232;28;20261;-55
2022/03/23 06:11:30;;;;;;;39.22;18.10;;;;;;;14.26;42.73;102903.56;5077301;28;20021;-57
2022/03/23 06:13:57;;;;;;;44.57;18.33;;;;;;;14.18;42.61;102911.63;5076759;28;20032;-56
2022/03/23 06:16:23;;;;;;;47.22;19.75;;;;;;;14.12;43.04;102910.47;5078333;28;20269;-55
2022/03/23 06:18:48;;;;;;;47.88;19.55;;;;;;;14.13;42.98;102912.16;5076841;28;20032;-55
2022/03/23 06:21:14;;;;;;;47.38;18.88;;;;;;;14.29;42.75;102911.28;5076685;28;20037;-54
2022/03/23 06:23:39;;;;;;;52.95;20.10;;;;;;;14.38;42.53;102911.28;5076268;28;20036;-55
2022/03/23 06:26:05;;;;;;;49.73;19.87;;;;;;;14.36;42.92;102916.84;5076123;28;20041;-51
2022/03/23 06:28:31;;;;;;;47.45;19.55;;;;;;;14.43;42.93;102917.84;5076264;28;20037;-56
2022/03/23 06:30:58;;;;;;;49.95;19.60;;;;;;;14.47;43.05;102913.78;5075878;28;20029;-53
2022/03/23 06:33:24;;;;;;;44.03;20.00;;;;;;;14.41;43.51;102917.16;5075921;28;20028;-56
2022/03/23 06:35:51;;;;;;;47.27;21.23;;;;;;;14.51;43.62;102922.38;5072735;28;20041;-53
2022/03/23 06:38:17;;;;;;;48.42;22.45;;;;;;;14.34;44.64;102926.94;5076443;28;20028;-54
2022/03/23 06:40:42;;;;;;;46.65;21.05;;;;;;;14.13;45.34;102928.28;5075792;28;20045;-52
2022/03/23 06:43:09;;;;;;;54.50;20.17;;;;;;;14.44;44.94;102930.28;5075494;28;20028;-52
2022/03/23 06:45:34;;;;;;;47.65;20.15;;;;;;;14.51;45.52;102937.66;5075633;28;20056;-55
2022/03/23 06:47:59;;;;;;;49.07;21.33;;;;;;;14.49;45.98;102937.88;5075727;28;20029;-52
2022/03/23 06:50:25;;;;;;;51.22;21.75;;;;;;;14.53;45.88;102932.97;5076946;28;20037;-54
2022/03/23 06:52:51;;;;;;;47.43;20.03;;;;;;;14.52;46.49;102929.44;5075437;28;20029;-53
2022/03/23 06:55:16;;;;;;;46.17;20.60;;;;;;;14.68;46.32;102941.19;5075642;28;20262;-49
2022/03/23 06:57:41;;;;;;;44.33;20.90;;;;;;;14.87;46.32;102940.00;5086847;28;20076;-52
2022/03/23 07:00:13;;;;;;;51.60;22.30;;;;;;;14.82;46.93;102937.00;5079154;28;20067;-56
2022/03/23 07:02:43;;;;;;;44.47;20.42;;;;;;;14.90;47.39;102942.34;5062018;28;20090;-53
2022/03/23 07:05:09;;;;;;;45.50;21.73;;;;;;;14.99;47.74;102948.56;5087187;28;20048;-50
2022/03/23 07:07:36;;;;;;;49.72;22.08;;;;;;;15.16;47.61;102949.31;5086491;28;20036;-55
2022/03/23 07:10:04;;;;;;;42.33;21.97;;;;;;;15.27;47.50;102948.97;5079591;28;20067;-51
2022/03/23 07:12:29;;;;;;;57.42;22.60;;;;;;;15.33;47.50;102959.03;5075820;28;20029;-54
2022/03/23 07:14:55;;;;;;;50.15;21.95;;;;;;;15.48;47.70;102963.69;5074993;28;20063;-55
2022/03/23 07:17:20;;;;;;;55.13;22.07;;;;;;;15.60;47.56;102956.03;5083243;28;20043;-50
2022/03/23 07:19:47;;;;;;;52.60;22.25;;;;;;;15.61;47.38;102953.16;5081603;28;20037;-54
2022/03/23 07:22:14;;;;;;;43.42;21.25;;;;;;;15.70;46.79;102956.66;5074840;28;20047;-51
2022/03/23 07:24:39;;;;;;;55.30;21.80;;;;;;;15.56;46.73;102960.09;5078183;28;20097;-56
2022/03/23 07:27:05;;;;;;;43.85;22.25;;;;;;;15.65;47.16;102960.88;5083540;28;20047;-55
2022/03/23 07:29:30;;;;;;;57.17;22.30;;;;;;;15.75;47.02;102961.53;5083895;28;20248;-54
2022/03/23 07:31:57;;;;;;;48.03;22.33;;;;;;;15.78;47.35;102961.16;5074555;28;20044;-54
2022/03/23 07:34:23;;;;;;;57.13;22.23;;;;;;;15.90;47.06;102964.31;5090824;28;20043;-57
2022/03/23 07:36:48;;;;;;;53.40;23.43;;;;;;;16.03;47.42;102969.13;5078538;28;20041;-55
2022/03/23 07:39:19;;;;;;;57.57;23.67;;;;;;;15.96;47.43;102968.97;5085230;28;20035;-54
2022/03/23 07:41:50;;;;;;;45.75;23.48;;;;;;;16.09;46.75;102971.09;5074193;28;20033;-54
2022/03/23 07:44:19;;;;;;;51.95;23.98;;;;;;;16.18;46.03;102967.31;5090889;28;20036;-53
2022/03/23 07:46:45;;;;;;;55.10;24.05;;;;;;;16.27;45.38;102969.94;5077796;28;20035;-56
2022/03/23 07:49:12;;;;;;;52.38;22.23;;;;;;;16.37;44.79;102967.81;5086629;28;20032;-54
2022/03/23 07:51:39;;;;;;;49.95;21.02;;;;;;;16.43;44.44;102971.66;5073667;28;20054;-57
2022/03/23 07:54:06;;;;;;;51.72;22.85;;;;;;;16.58;44.05;102975.22;5089058;28;20040;-54
2022/03/23 07:56:32;;;;;;;52.22;23.98;;;;;;;16.58;43.76;102971.69;5076529;28;20033;-55
2022/03/23 07:58:58;;;;;;;51.72;23.17;;;;;;;16.78;43.42;102974.72;5088318;28;20071;-57
2022/03/23 08:01:23;;;;;;;43.88;21.50;;;;;;;16.86;42.80;102982.72;5074013;28;20024;-55
2022/03/23 08:03:49;;;;;;;46.97;22.67;;;;;;;16.97;42.27;102981.41;5086884;28;20041;-56
2022/03/23 08:06:15;;;;;;;54.33;23.70;;;;;;;16.96;42.22;102987.84;5076869;28;20035;-56
2022/03/23 08:08:40;;;;;;;45.72;21.75;;;;;;;17.21;41.52;102979.47;5090570;28;20029;-54
2022/03/23 08:11:05;;;;;;;46.03;22.17;;;;;;;17.40;40.95;102982.63;5073654;28;20029;-54
2022/03/23 08:13:31;;;;;;;50.15;23.58;;;;;;;17.51;40.71;102984.84;5084513;28;20069;-56
2022/03/23 08:15:57;;;;;;;46.80;22.03;;;;;;;17.54;40.48;102989.91;5079277;28;20029;-56
2022/03/23 08:18:22;;;;;;;40.90;21.25;;;;;;;17.58;40.73;102982.22;5090583;28;20127;-56
2022/03/23 08:20:49;;;;;;;49.47;24.00;;;;;;;17.69;40.53;102984.44;5073973;28;20068;-55
2022/03/23 08:23:15;;;;;;;56.75;23.90;;;;;;;17.79;40.85;102994.97;5073294;28;20060;-57
2022/03/23 08:25:43;;;;;;;48.25;22.90;;;;;;;17.92;40.45;102983.44;5073012;28;20028;-54
2022/03/23 08:28:17;;;;;;;54.47;22.70;;;;;;;17.98;40.14;102987.22;5073320;28;20040;-55
2022/03/23 08:30:44;;;;;;;49.22;24.02;;;;;;;18.10;40.20;102988.44;5071630;28;20035;-57
2022/03/23 08:33:11;;;;;;;56.63;25.10;;;;;;;18.20;39.59;102988.94;5073242;28;20025;-56
2022/03/23 08:35:37;;;;;;;50.45;23.40;;;;;;;18.29;39.32;102981.50;5078681;28;20043;-54
2022/03/23 08:38:04;;;;;;;;;;;;;;;18.37;39.86;102985.97;5073617;28;20051;-57
2022/03/23 08:40:29;;;;;;;47.33;22.90;;;;;;;18.51;39.79;102996.91;5075143;28;19916;-55
2022/03/23 08:42:58;;;;;;;44.17;23.35;;;;;;;18.54;39.59;102988.38;5077350;28;20053;-56
2022/03/23 08:45:24;;;;;;;47.28;23.60;;;;;;;18.49;38.46;102984.41;5073166;28;20096;-55
2022/03/23 08:47:50;;;;;;;;;;;;;;;18.70;38.61;102989.97;5073552;28;20120;-55
2022/03/23 08:50:16;;;;;;;42.67;22.73;;;;;;;18.93;38.60;102989.72;5073107;28;19909;-55
2022/03/23 08:52:42;;;;;;;44.95;24.10;;;;;;;19.17;38.49;102998.41;5072304;28;20037;-57
2022/03/23 08:55:11;;;;;;;42.63;22.65;;;;;;;19.42;37.96;102989.78;5072844;28;20025;-54
2022/03/23 08:57:36;;;;;;;45.33;24.23;;;;;;;19.76;37.17;102994.25;5072342;28;20041;-55
2022/03/23 09:00:07;;;;;;;40.13;21.35;;;;;;;20.23;35.23;103000.84;5072597;28;20281;-56
2022/03/23 09:02:32;;;;;;;45.20;23.73;;;;;;;20.85;33.92;103003.34;5073332;28;20041;-52
2022/03/23 09:04:58;;;;;;;48.35;23.38;;;;;;;21.32;32.83;103005.91;5074582;28;20266;-53
2022/03/23 09:07:23;;;;;;;46.13;23.60;;;;;;;21.88;32.00;103001.66;5076254;28;20040;-57
2022/03/23 09:09:49;;;;;;;51.23;23.30;;;;;;;22.51;31.29;103007.31;5076568;28;20033;-53
2022/03/23 09:12:14;;;;;;;43.10;23.45;;;;;;;22.96;30.65;102999.97;5073363;28;20123;-56
2022/03/23 09:14:40;;;;;;;49.47;22.77;;;;;;;23.51;30.68;103006.44;5075944;28;20047;-55
2022/03/23 09:17:05;;;;;;;41.58;23.13;;;;;;;24.30;29.34;103009.06;5082914;28;20285;-57
2022/03/23 09:19:31;;;;;;;48.88;24.40;;;;;;;24.83;28.54;103019.34;5086809;28;20043;-54
2022/03/23 09:21:56;;;;;;;42.13;23.92;;;;;;;25.26;27.98;103012.59;5087718;28;20131;-54
2022/03/23 09:24:22;;;;;;;47.85;22.25;;;;;;;25.75;27.28;103019.56;5079797;28;20071;-56
2022/03/23 09:26:47;;;;;;;48.03;24.02;;;;;;;26.23;26.40;103011.09;5096981;28;20033;-53
2022/03/23 09:29:13;;;;;;;40.38;23.58;;;;;;;26.71;25.67;103015.09;5089077;28;20431;-55
2022/03/23 09:31:39;;;;;;;;;;;;;;;27.17;25.28;103019.56;5088201;28;20036;-55
2022/03/23 09:34:06;;;;;;;45.43;23.27;;;;;;;27.81;24.68;103026.31;5079031;28;19915;-55
2022/03/23 09:39:17;;;;;;;41.17;23.37;;;;;;;28.43;23.62;103024.13;5076188;28;20033;-56
2022/03/23 09:41:45;;;;;;;39.37;22.50;;;;;;;28.70;23.59;103025.06;5077355;28;20044;-57
2022/03/23 09:44:12;;;;;;;48.10;23.57;;;;;;;28.81;23.43;103028.75;5076475;28;20040;-54
2022/03/23 09:46:37;;;;;;;37.23;21.60;;;;;;;29.20;22.93;103025.63;5078958;28;20033;-55
2022/03/23 09:49:06;;;;;;;40.17;22.50;;;;;;;29.49;22.59;103022.41;5075245;28;20037;-57
2022/03/23 09:51:34;;;;;;;42.00;23.03;;;;;;;29.96;21.71;103026.06;5075433;28;20037;-57
2022/03/23 09:54:01;;;;;;;37.10;22.20;;;;;;;30.04;21.15;103028.28;5089705;28;20097;-59
2022/03/23 09:56:27;;;;;;;38.30;21.83;;;;;;;30.32;21.25;103026.06;5079010;28;20052;-58
2022/03/23 09:58:53;;;;;;;39.10;22.80;;;;;;;30.70;20.01;103023.00;5090560;28;20113;-55
2022/03/23 10:01:27;;;;;;;38.53;22.47;;;;;;;30.97;19.71;103029.22;5075603;28;20041;-57
2022/03/23 10:04:27;;;;;;;40.37;23.03;;;;;;;31.25;20.64;103027.75;5088485;28;20060;-57
2022/03/23 10:07:05;;;;;;;36.35;22.20;;;;;;;31.53;20.04;103022.59;5064526;28;20039;-57
2022/03/23 10:09:45;;;;;;;38.53;21.70;;;;;;;31.98;19.96;103032.81;5085598;28;20039;-55
2022/03/23 10:13:01;;;;;;;43.33;21.77;;;;;;;31.92;20.18;103037.53;5090695;28;20070;-56
2022/03/23 10:15:55;;;;;;;33.88;21.10;;;;;;;32.35;19.78;103036.94;5074205;28;20059;-57
2022/03/23 10:18:20;;;;;;;39.90;22.45;;;;;;;32.58;19.91;103038.03;5074625;28;20032;-56
2022/03/23 10:20:46;;;;;;;38.20;23.23;;;;;;;32.97;19.15;103036.22;5073561;28;20037;-55
2022/03/23 10:23:11;;;;;;;43.72;22.15;;;;;;;32.94;19.08;103042.38;5081405;28;20039;-58
2022/03/23 10:25:40;;;;;;;52.38;23.13;;;;;;;33.44;18.82;103032.84;5083791;28;20112;-58
2022/03/23 10:28:16;;;;;;;43.92;22.42;;;;;;;33.77;18.58;103044.00;5083704;28;20055;-55
2022/03/23 10:30:43;;;;;;;32.88;20.95;;;;;;;34.20;18.51;103042.19;5076043;28;20169;-57
2022/03/23 10:33:20;;;;;;;39.50;23.77;;;;;;;34.55;17.77;103045.44;5088069;28;20025;-56
2022/03/23 10:35:46;;;;;;;38.45;24.20;;;;;;;34.19;18.24;103038.59;5085933;28;20048;-56
2022/03/23 10:38:20;;;;;;;38.97;22.98;;;;;;;34.71;17.72;103035.69;5079595;28;20123;-55
2022/03/23 10:40:47;;;;;;;32.35;23.23;;;;;;;35.10;17.26;103032.69;5063529;28;20032;-58
2022/03/23 10:43:18;;;;;;;33.20;22.48;;;;;;;35.31;16.79;103036.63;5082068;28;20050;-59
2022/03/23 10:45:43;;;;;;;39.75;23.55;;;;;;;35.28;16.95;103036.44;5083036;28;20036;-57
2022/03/23 10:48:14;;;;;;;45.65;22.38;;;;;;;35.56;16.72;103030.81;5089652;28;20104;-56
2022/03/23 10:50:55;;;;;;;38.28;22.58;;;;;;;35.42;16.37;103033.59;5076776;28;20048;-60
2022/03/23 10:53:31;;;;;;;39.70;22.13;;;;;;;35.63;16.72;103027.56;5086071;28;20029;-56
2022/03/23 10:55:58;;;;;;;42.97;22.50;;;;;;;36.09;16.59;103023.63;5066775;28;20025;-56
2022/03/23 10:58:25;;;;;;;42.88;23.42;;;;;;;36.38;16.23;103027.84;5090317;28;20052;-55
2022/03/23 11:00:54;;;;;;;44.67;23.52;;;;;;;36.95;15.60;103029.03;5078389;28;20064;-57
2022/03/23 11:03:19;;;;;;;41.50;23.98;;;;;;;37.16;15.52;103034.00;5086234;28;20043;-59
2022/03/23 11:05:47;;;;;;;41.33;24.15;;;;;;;36.88;15.38;103028.69;5085054;28;20040;-57
2022/03/23 11:08:23;;;;;;;38.40;24.33;;;;;;;37.41;15.18;103026.78;5078554;28;20097;-58
2022/03/23 11:16:48;;;;;;;45.53;23.95;;;;;;;38.51;14.11;103030.31;5075366;28;20056;-57
2022/03/23 11:19:18;;;;;;;37.13;22.02;;;;;;;38.66;14.37;103026.13;5087055;28;20105;-54
2022/03/23 11:22:09;;;;;;;36.60;22.08;;;;;;;38.97;13.84;103029.72;5085433;28;20044;-56
2022/03/23 11:24:38;;;;;;;40.20;20.80;;;;;;;38.79;14.53;103029.00;5077505;28;20097;-59
2022/03/23 11:27:09;;;;;;;38.85;23.67;;;;;;;39.33;13.53;103031.09;5079957;28;20043;-58
2022/03/23 11:29:37;;;;;;;38.40;24.75;;;;;;;39.38;13.68;103022.50;5083958;28;20037;-60